createdAt,value
2018-10-21T00:00:36.240Z,6.80
2018-10-21T00:03:05.615Z,6.70
2018-10-21T00:05:35.064Z,5.83
2018-10-21T00:08:04.180Z,8.53
2018-10-21T00:10:33.359Z,7.70
2018-10-21T00:13:02.940Z,5.80
2018-10-21T00:15:32.399Z,4.23
2018-10-21T00:18:01.345Z,6.00
2018-10-21T00:20:30.490Z,5.60
2018-10-21T00:22:59.852Z,7.03
2018-10-21T00:25:29.068Z,7.70
2018-10-21T00:27:58.541Z,7.57
2018-10-21T00:30:28.083Z,4.83
2018-10-21T00:32:57.313Z,8.97
2018-10-21T00:35:26.764Z,4.83
2018-10-21T00:37:55.875Z,6.70
2018-10-21T00:40:25.110Z,5.07
2018-10-21T00:42:54.531Z,5.55
2018-10-21T00:45:23.777Z,7.03
2018-10-21T00:47:52.881Z,4.90
2018-10-21T00:50:21.968Z,4.13
2018-10-21T00:52:51.304Z,4.97
2018-10-21T00:55:20.646Z,5.90
2018-10-21T00:57:49.949Z,4.80
2018-10-21T01:00:19.073Z,5.87
2018-10-21T01:02:48.345Z,8.93
2018-10-21T01:05:17.478Z,4.23
2018-10-21T01:07:46.870Z,8.80
2018-10-21T01:10:16.067Z,3.13
2018-10-21T01:12:45.196Z,3.23
2018-10-21T01:15:14.475Z,9.27
2018-10-21T01:17:43.672Z,3.87
2018-10-21T01:20:13.557Z,4.60
2018-10-21T01:22:44.087Z,6.67
2018-10-21T01:25:13.159Z,5.50
2018-10-21T01:27:42.895Z,3.20
2018-10-21T01:30:12.907Z,3.90
2018-10-21T01:32:42.106Z,3.93
2018-10-21T01:35:11.219Z,11.03
2018-10-21T01:37:40.910Z,2.57
2018-10-21T01:40:42.776Z,4.57
2018-10-21T01:43:13.642Z,4.60
2018-10-21T01:45:43.123Z,4.60
2018-10-21T01:48:13.764Z,3.67
2018-10-21T01:50:42.878Z,3.00
2018-10-21T01:53:13.188Z,4.23
2018-10-21T01:55:42.315Z,3.53
2018-10-21T01:58:11.545Z,3.90
2018-10-21T02:00:41.391Z,4.33
2018-10-21T02:03:10.649Z,3.30
2018-10-21T02:05:40.199Z,2.27
2018-10-21T02:08:09.289Z,2.30
2018-10-21T02:10:38.407Z,1.33
2018-10-21T02:13:07.815Z,4.83
2018-10-21T02:15:37.105Z,3.75
2018-10-21T02:18:06.507Z,2.73
2018-10-21T02:20:35.883Z,3.67
2018-10-21T02:23:05.114Z,2.97
2018-10-21T02:25:34.546Z,4.40
2018-10-21T02:28:03.680Z,2.23
2018-10-21T02:30:32.835Z,3.55
2018-10-21T02:33:02.429Z,3.30
2018-10-21T02:35:31.615Z,4.40
2018-10-21T02:38:00.694Z,4.13
2018-10-21T02:41:08.651Z,3.10
2018-10-21T02:43:37.778Z,4.13
2018-10-21T02:46:07.018Z,1.90
2018-10-21T02:48:36.330Z,3.93
2018-10-21T02:51:05.525Z,3.77
2018-10-21T02:53:35.029Z,4.53
2018-10-21T02:56:04.385Z,1.83
2018-10-21T02:58:33.684Z,3.37
2018-10-21T03:01:02.792Z,3.73
2018-10-21T03:03:31.965Z,4.90
2018-10-21T03:06:01.158Z,5.80
2018-10-21T03:08:30.471Z,3.70
2018-10-21T03:11:00.009Z,2.97
2018-10-21T03:13:29.122Z,6.00
2018-10-21T03:15:58.389Z,4.27
2018-10-21T03:18:27.669Z,4.17
2018-10-21T03:20:56.736Z,6.30
2018-10-21T03:23:26.097Z,3.40
2018-10-21T03:25:55.242Z,3.90
2018-10-21T03:28:24.345Z,3.97
2018-10-21T03:30:53.604Z,3.77
2018-10-21T03:33:22.917Z,4.00
2018-10-21T03:35:52.246Z,4.43
2018-10-21T03:38:21.489Z,5.63
2018-10-21T03:40:50.773Z,3.27
2018-10-21T03:43:20.220Z,5.10
2018-10-21T03:45:49.591Z,3.83
2018-10-21T03:48:18.887Z,1.77
2018-10-21T03:50:48.023Z,4.50
2018-10-21T03:53:17.297Z,4.43
2018-10-21T03:55:46.416Z,3.33
2018-10-21T03:58:15.580Z,2.90
2018-10-21T04:00:44.638Z,2.77
2018-10-21T04:03:13.851Z,4.23
2018-10-21T04:05:43.031Z,3.98
2018-10-21T04:08:12.132Z,2.57
2018-10-21T04:10:41.363Z,2.33
2018-10-21T04:13:10.608Z,3.00
2018-10-21T04:15:39.680Z,5.70
2018-10-21T04:18:08.759Z,6.07
2018-10-21T04:20:37.971Z,4.23
2018-10-21T04:23:07.198Z,3.87
2018-10-21T04:25:37.728Z,2.97
2018-10-21T04:28:07.425Z,3.27
2018-10-21T04:30:37.637Z,2.70
2018-10-21T04:33:34.730Z,4.13
2018-10-21T04:36:03.965Z,3.00
2018-10-21T04:39:19.636Z,4.23
2018-10-21T04:41:49.206Z,2.37
2018-10-21T04:44:18.305Z,1.57
2018-10-21T04:46:47.673Z,1.53
2018-10-21T04:49:17.303Z,3.53
2018-10-21T04:51:46.415Z,2.63
2018-10-21T04:54:15.698Z,6.40
2018-10-21T04:56:44.971Z,5.55
2018-10-21T04:59:14.182Z,2.70
2018-10-21T05:01:43.312Z,4.03
2018-10-21T05:04:12.392Z,3.90
2018-10-21T05:06:41.552Z,4.97
2018-10-21T05:09:10.855Z,3.03
2018-10-21T05:11:40.020Z,4.50
2018-10-21T05:14:09.306Z,4.83
2018-10-21T05:16:38.812Z,2.93
2018-10-21T05:19:07.973Z,2.87
2018-10-21T05:21:37.069Z,5.00
2018-10-21T05:24:06.716Z,4.37
2018-10-21T05:26:36.101Z,5.57
2018-10-21T05:29:05.277Z,7.03
2018-10-21T05:31:34.637Z,6.93
2018-10-21T05:34:04.618Z,5.03
2018-10-21T05:36:33.701Z,3.17
2018-10-21T05:39:02.833Z,4.17
2018-10-21T05:41:32.038Z,5.00
2018-10-21T05:44:01.172Z,5.33
2018-10-21T05:46:49.392Z,5.83
2018-10-21T05:49:18.483Z,6.30
2018-10-21T05:51:48.961Z,5.83
2018-10-21T05:54:19.103Z,5.27
2018-10-21T05:56:51.876Z,7.50
2018-10-21T05:59:21.122Z,5.17
2018-10-21T06:01:50.530Z,14.00
2018-10-21T06:04:19.753Z,19.47
2018-10-21T06:06:49.180Z,11.67
2018-10-21T06:09:18.268Z,7.07
2018-10-21T06:11:47.396Z,11.37
2018-10-21T06:14:16.515Z,9.20
2018-10-21T06:17:07.033Z,4.97
2018-10-21T06:19:39.147Z,8.17
2018-10-21T06:22:08.469Z,8.57
2018-10-21T06:24:37.605Z,7.57
2018-10-21T06:27:07.031Z,11.97
2018-10-21T06:29:36.116Z,7.03
2018-10-21T06:32:05.365Z,8.03
2018-10-21T06:34:34.622Z,9.45
2018-10-21T06:37:03.761Z,5.80
2018-10-21T06:39:32.860Z,8.10
2018-10-21T06:42:02.237Z,6.27
2018-10-21T06:44:31.517Z,6.07
2018-10-21T06:47:00.701Z,11.77
2018-10-21T06:49:30.023Z,8.10
2018-10-21T06:51:59.509Z,9.27
2018-10-21T06:54:29.049Z,7.50
2018-10-21T06:56:58.632Z,10.17
2018-10-21T06:59:27.714Z,8.47
2018-10-21T07:01:56.949Z,7.73
2018-10-21T07:04:26.166Z,9.13
2018-10-21T07:06:55.171Z,9.47
2018-10-21T07:09:24.450Z,10.20
2018-10-21T07:11:53.581Z,17.33
2018-10-21T07:14:22.823Z,27.27
2018-10-21T07:16:52.292Z,11.43
2018-10-21T07:19:21.421Z,13.40
2018-10-21T07:21:50.735Z,8.67
2018-10-21T07:24:20.125Z,10.60
2018-10-21T07:26:49.346Z,9.30
2018-10-21T07:29:18.628Z,11.70
2018-10-21T07:31:47.827Z,7.33
2018-10-21T07:34:17.143Z,11.07
2018-10-21T07:36:46.862Z,8.00
2018-10-21T07:39:16.164Z,9.50
2018-10-21T07:41:45.660Z,6.67
2018-10-21T07:44:15.180Z,13.70
2018-10-21T07:46:44.423Z,9.13
2018-10-21T07:49:13.848Z,12.70
2018-10-21T07:51:43.170Z,7.67
2018-10-21T07:54:12.400Z,12.03
2018-10-21T07:56:41.519Z,10.10
2018-10-21T07:59:10.767Z,62.10
2018-10-21T08:01:40.158Z,43.87
2018-10-21T08:04:09.471Z,32.93
2018-10-21T08:07:15.059Z,14.03
2018-10-21T08:09:44.685Z,9.40
2018-10-21T08:12:14.324Z,9.53
2018-10-21T08:14:43.750Z,8.30
2018-10-21T08:17:12.949Z,9.37
2018-10-21T08:19:42.268Z,11.00
2018-10-21T08:22:11.727Z,10.40
2018-10-21T08:24:41.151Z,10.03
2018-10-21T08:27:10.281Z,7.87
2018-10-21T08:29:39.967Z,10.10
2018-10-21T08:32:09.377Z,43.70
2018-10-21T08:34:38.910Z,28.80
2018-10-21T08:37:08.175Z,23.43
2018-10-21T08:39:37.600Z,13.70
2018-10-21T08:42:06.830Z,13.30
2018-10-21T08:44:36.241Z,14.40
2018-10-21T08:47:05.813Z,10.97
2018-10-21T08:49:35.291Z,10.17
2018-10-21T08:52:04.747Z,9.83
2018-10-21T08:54:34.199Z,15.93
2018-10-21T08:57:03.495Z,11.33
2018-10-21T08:59:32.655Z,12.63
2018-10-21T09:02:02.077Z,10.93
2018-10-21T09:04:31.228Z,10.83
2018-10-21T09:07:19.554Z,12.67
2018-10-21T09:09:48.840Z,10.83
2018-10-21T09:12:18.172Z,11.53
2018-10-21T09:14:48.674Z,8.40
2018-10-21T09:17:17.595Z,14.20
2018-10-21T09:19:47.069Z,13.87
2018-10-21T09:22:16.397Z,12.43
2018-10-21T09:24:45.645Z,9.90
2018-10-21T09:27:14.972Z,12.25
2018-10-21T09:29:44.218Z,12.93
2018-10-21T09:32:13.437Z,7.60
2018-10-21T09:34:42.772Z,11.50
2018-10-21T09:37:12.036Z,9.53
2018-10-21T09:39:41.302Z,10.85
2018-10-21T09:42:11.167Z,9.23
2018-10-21T09:44:40.823Z,9.53
2018-10-21T09:47:10.307Z,10.03
2018-10-21T09:49:39.476Z,27.70
2018-10-21T09:52:09.179Z,19.50
2018-10-21T09:54:38.404Z,8.45
2018-10-21T09:57:08.131Z,7.15
2018-10-21T09:59:37.463Z,6.12
2018-10-21T10:02:24.906Z,5.50
2018-10-21T10:04:54.145Z,5.87
2018-10-21T10:07:23.752Z,7.45
2018-10-21T10:09:53.363Z,7.87
2018-10-21T10:12:22.765Z,6.47
2018-10-21T10:14:52.063Z,6.80
2018-10-21T10:17:21.167Z,7.58
2018-10-21T10:19:50.586Z,9.13
2018-10-21T10:22:20.000Z,6.00
2018-10-21T10:24:49.548Z,6.90
2018-10-21T10:27:18.829Z,7.57
2018-10-21T10:29:48.198Z,5.77
2018-10-21T10:32:17.562Z,5.85
2018-10-21T10:55:03.773Z,7.37
2018-10-21T10:57:32.954Z,3.97
2018-10-21T11:00:02.516Z,3.83
2018-10-21T11:02:31.689Z,3.83
2018-10-21T11:05:00.853Z,3.80
2018-10-21T11:07:30.132Z,3.23
2018-10-21T11:09:59.687Z,4.57
2018-10-21T11:12:29.173Z,3.70
2018-10-21T11:14:58.564Z,3.57
2018-10-21T11:17:28.206Z,6.47
2018-10-21T11:19:57.891Z,2.63
2018-10-21T11:22:27.207Z,4.33
2018-10-21T11:24:56.553Z,5.13
2018-10-21T11:27:26.007Z,3.23
2018-10-21T11:29:55.208Z,5.40
2018-10-21T11:32:24.854Z,4.93
2018-10-21T11:34:54.248Z,3.53
2018-10-21T11:37:23.626Z,4.47
2018-10-21T11:39:52.927Z,3.83
2018-10-21T11:42:22.629Z,5.40
2018-10-21T11:44:52.039Z,4.97
2018-10-21T11:47:21.228Z,3.50
2018-10-21T11:49:50.511Z,3.50
2018-10-21T11:52:19.670Z,3.67
2018-10-21T11:54:48.978Z,5.40
2018-10-21T11:57:18.344Z,3.10
2018-10-21T11:59:47.940Z,2.83
2018-10-21T12:02:17.189Z,4.27
2018-10-21T12:04:47.047Z,4.83
2018-10-21T12:07:16.306Z,6.47
2018-10-21T12:09:45.579Z,5.43
2018-10-21T12:12:14.853Z,2.87
2018-10-21T12:14:44.043Z,5.10
2018-10-21T12:17:13.481Z,4.00
2018-10-21T12:19:42.771Z,3.80
2018-10-21T12:22:12.090Z,4.00
2018-10-21T12:24:41.473Z,3.73
2018-10-21T12:27:10.968Z,5.07
2018-10-21T12:29:40.145Z,3.40
2018-10-21T12:32:09.580Z,5.07
2018-10-21T12:34:38.873Z,5.63
2018-10-21T12:37:08.417Z,3.63
2018-10-21T12:39:37.891Z,3.27
2018-10-21T12:42:07.170Z,3.07
2018-10-21T12:44:36.366Z,5.53
2018-10-21T12:47:06.165Z,6.27
2018-10-21T12:49:35.370Z,2.65
2018-10-21T12:52:04.776Z,3.17
2018-10-21T12:54:34.407Z,4.23
2018-10-21T12:57:03.697Z,3.23
2018-10-21T12:59:33.102Z,3.10
2018-10-21T13:02:02.377Z,3.63
2018-10-21T13:04:31.595Z,2.83
2018-10-21T13:07:00.934Z,3.83
2018-10-21T13:09:30.455Z,6.83
2018-10-21T13:11:59.802Z,3.50
2018-10-21T13:14:29.304Z,3.93
2018-10-21T13:16:58.969Z,3.27
2018-10-21T13:19:28.370Z,3.80
2018-10-21T13:21:57.871Z,3.47
2018-10-21T13:24:27.425Z,4.37
2018-10-21T13:26:56.879Z,4.03
2018-10-21T13:29:26.249Z,3.80
2018-10-21T13:31:55.693Z,5.00
2018-10-21T13:34:25.077Z,5.20
2018-10-21T13:36:54.530Z,4.67
2018-10-21T13:39:24.209Z,2.57
2018-10-21T13:41:53.464Z,5.00
2018-10-21T13:44:22.851Z,3.83
2018-10-21T13:46:52.410Z,4.47
2018-10-21T13:49:22.086Z,4.10
2018-10-21T13:51:51.603Z,3.23
2018-10-21T13:54:21.271Z,2.77
2018-10-21T13:56:50.734Z,4.23
2018-10-21T13:59:19.972Z,4.57
2018-10-21T14:01:49.336Z,5.15
2018-10-21T14:04:18.835Z,4.87
2018-10-21T14:06:48.280Z,4.70
2018-10-21T14:09:17.553Z,7.57
2018-10-21T14:11:47.051Z,3.17
2018-10-21T14:14:16.434Z,6.07
2018-10-21T14:16:45.855Z,7.50
2018-10-21T14:19:15.340Z,5.87
2018-10-21T14:21:44.727Z,4.93
2018-10-21T14:24:14.622Z,6.90
2018-10-21T14:26:44.760Z,6.43
2018-10-21T14:29:14.270Z,6.40
2018-10-21T14:31:43.619Z,5.60
2018-10-21T14:34:12.967Z,8.50
2018-10-21T14:36:42.371Z,8.27
2018-10-21T14:39:13.384Z,10.63
2018-10-21T14:41:42.544Z,6.10
2018-10-21T14:44:11.706Z,6.20
2018-10-21T14:46:41.004Z,7.20
2018-10-21T14:49:10.818Z,7.80
2018-10-21T14:51:40.336Z,8.60
2018-10-21T14:54:09.762Z,9.30
2018-10-21T14:56:39.022Z,10.17
2018-10-21T14:59:08.235Z,12.87
2018-10-21T15:01:37.891Z,8.77
2018-10-21T15:04:07.407Z,7.23
2018-10-21T15:06:36.671Z,7.43
2018-10-21T15:09:10.013Z,8.40
2018-10-21T15:11:39.311Z,7.40
2018-10-21T15:14:08.464Z,10.20
2018-10-21T15:16:37.865Z,10.67
2018-10-21T15:19:07.271Z,10.70
2018-10-21T15:21:36.464Z,10.33
2018-10-21T15:24:05.877Z,10.93
2018-10-21T15:26:35.024Z,10.03
2018-10-21T15:29:04.413Z,9.13
2018-10-21T15:31:33.813Z,10.60
2018-10-21T15:34:03.413Z,10.77
2018-10-21T15:36:32.765Z,9.53
2018-10-21T15:39:02.016Z,10.87
2018-10-21T15:41:31.489Z,10.20
2018-10-21T15:44:00.797Z,10.37
2018-10-21T15:46:30.119Z,11.17
2018-10-21T15:48:59.628Z,11.55
2018-10-21T15:51:29.414Z,11.03
2018-10-21T15:53:58.734Z,9.70
2018-10-21T15:56:28.526Z,8.23
2018-10-21T15:58:57.905Z,9.43
2018-10-21T16:01:27.356Z,10.90
2018-10-21T16:03:56.854Z,9.80
2018-10-21T16:06:26.377Z,10.00
2018-10-21T16:08:55.684Z,11.07
2018-10-21T16:11:25.050Z,13.60
2018-10-21T16:13:54.472Z,14.18
2018-10-21T16:16:23.884Z,14.13
2018-10-21T16:18:53.245Z,11.17
2018-10-21T16:21:22.569Z,51.80
2018-10-21T16:23:52.275Z,101.53
2018-10-21T16:26:21.776Z,22.80
2018-10-21T16:28:51.031Z,14.87
2018-10-21T16:31:20.597Z,16.20
2018-10-21T16:33:49.975Z,16.10
2018-10-21T16:36:21.468Z,13.30
2018-10-21T16:38:50.985Z,17.87
2018-10-21T16:41:21.266Z,46.93
2018-10-21T16:43:50.548Z,29.87
2018-10-21T16:46:19.918Z,21.53
2018-10-21T16:48:49.385Z,38.37
2018-10-21T16:51:18.711Z,40.43
2018-10-21T16:53:48.089Z,21.67
2018-10-21T16:56:17.503Z,19.33
2018-10-21T16:58:46.714Z,21.67
2018-10-21T17:01:16.226Z,16.30
2018-10-21T17:03:45.640Z,18.33
2018-10-21T17:06:14.918Z,13.43
2018-10-21T17:08:44.618Z,16.77
2018-10-21T17:11:14.167Z,17.35
2018-10-21T17:13:43.751Z,15.13
2018-10-21T17:16:13.277Z,17.47
2018-10-21T17:18:42.606Z,17.40
2018-10-21T17:21:12.040Z,17.57
2018-10-21T17:23:41.565Z,17.03
2018-10-21T17:26:11.448Z,17.30
2018-10-21T17:28:40.920Z,20.57
2018-10-21T17:31:10.316Z,19.33
2018-10-21T17:33:39.493Z,18.20
2018-10-21T17:36:09.287Z,19.20
2018-10-21T17:38:38.807Z,24.90
2018-10-21T17:41:08.165Z,75.77
2018-10-21T17:43:37.778Z,65.33
2018-10-21T17:46:07.233Z,179.57
2018-10-21T17:48:36.607Z,33.23
2018-10-21T17:51:06.094Z,22.50
2018-10-21T17:53:36.555Z,20.43
2018-10-21T17:56:06.222Z,21.60
2018-10-21T17:58:35.701Z,23.10
2018-10-21T18:01:04.875Z,19.43
2018-10-21T18:03:34.323Z,21.50
2018-10-21T18:06:03.649Z,23.77
2018-10-21T18:08:32.978Z,16.30
2018-10-21T18:11:02.424Z,19.33
2018-10-21T18:13:31.716Z,22.90
2018-10-21T18:16:01.129Z,19.23
2018-10-21T18:18:30.579Z,19.52
2018-10-21T18:21:00.038Z,22.30
2018-10-21T18:23:29.489Z,18.97
2018-10-21T18:25:58.861Z,21.40
2018-10-21T18:28:28.359Z,25.40
2018-10-21T18:30:57.579Z,17.57
2018-10-21T18:33:26.980Z,20.50
2018-10-21T18:35:56.677Z,145.23
2018-10-21T18:38:25.944Z,101.93
2018-10-21T18:40:55.181Z,39.40
2018-10-21T18:43:24.482Z,25.67
2018-10-21T18:45:54.066Z,26.17
2018-10-21T18:48:23.486Z,23.63
2018-10-21T18:50:52.729Z,20.53
2018-10-21T18:53:22.131Z,20.67
2018-10-21T18:55:51.444Z,19.83
2018-10-21T18:58:20.797Z,23.77
2018-10-21T19:00:50.246Z,19.40
2018-10-21T19:03:19.904Z,21.80
2018-10-21T19:05:49.104Z,20.53
2018-10-21T19:08:18.541Z,21.30
2018-10-21T19:10:47.827Z,21.87
2018-10-21T19:13:17.567Z,20.10
2018-10-21T19:15:47.149Z,23.90
2018-10-21T19:18:16.514Z,21.07
2018-10-21T19:20:45.654Z,22.90
2018-10-21T19:23:15.064Z,17.97
2018-10-21T19:25:44.233Z,19.17
2018-10-21T19:28:13.677Z,17.83
2018-10-21T19:30:42.856Z,22.80
2018-10-21T19:33:12.237Z,20.40
2018-10-21T19:35:41.852Z,19.87
2018-10-21T19:38:11.149Z,17.17
2018-10-21T19:40:40.654Z,18.53
2018-10-21T19:43:10.737Z,18.07
2018-10-21T19:45:39.939Z,20.60
2018-10-21T19:48:09.603Z,21.70
2018-10-21T19:50:38.980Z,18.70
2018-10-21T19:53:08.305Z,21.13
2018-10-21T19:55:37.585Z,22.60
2018-10-21T19:58:06.812Z,19.57
2018-10-21T20:00:36.337Z,17.37
2018-10-21T20:03:05.885Z,19.83
2018-10-21T20:05:35.232Z,20.80
2018-10-21T20:08:04.761Z,20.20
2018-10-21T20:10:34.214Z,22.37
2018-10-21T20:13:03.509Z,15.97
2018-10-21T20:15:33.065Z,19.47
2018-10-21T20:18:02.630Z,19.13
2018-10-21T20:20:31.926Z,18.63
2018-10-21T20:23:01.220Z,17.57
2018-10-21T20:25:30.658Z,19.30
2018-10-21T20:27:59.948Z,15.20
2018-10-21T20:30:29.390Z,20.90
2018-10-21T20:32:59.247Z,21.30
2018-10-21T20:35:28.329Z,21.75
2018-10-21T20:37:58.176Z,22.57
2018-10-21T20:40:27.573Z,19.90
2018-10-21T20:42:57.079Z,20.47
2018-10-21T20:45:26.785Z,21.00
2018-10-21T20:47:55.934Z,18.50
2018-10-21T20:50:25.377Z,19.80
2018-10-21T20:52:54.607Z,18.00
2018-10-21T20:55:23.904Z,19.07
2018-10-21T20:57:53.228Z,16.73
2018-10-21T21:00:22.536Z,17.90
2018-10-21T21:02:52.185Z,17.47
2018-10-21T21:05:21.475Z,19.70
2018-10-21T21:07:50.643Z,19.77
2018-10-21T21:10:20.077Z,17.95
2018-10-21T21:12:49.277Z,19.53
2018-10-21T21:15:18.835Z,18.50
2018-10-21T21:17:51.663Z,22.33
2018-10-21T21:20:20.984Z,22.73
2018-10-21T21:22:50.144Z,21.80
2018-10-21T21:25:19.498Z,22.58
2018-10-21T21:27:48.914Z,20.10
2018-10-21T21:30:18.614Z,18.80
2018-10-21T21:32:48.099Z,20.37
2018-10-21T21:35:17.678Z,23.43
2018-10-21T21:37:46.862Z,17.50
2018-10-21T21:40:16.255Z,19.77
2018-10-21T21:42:45.488Z,20.00
2018-10-21T21:45:14.813Z,17.10
2018-10-21T21:47:43.984Z,17.43
2018-10-21T21:50:13.204Z,18.97
2018-10-21T21:52:42.604Z,18.73
2018-10-21T21:55:11.901Z,21.35
2018-10-21T21:57:41.064Z,21.50
2018-10-21T22:00:12.300Z,20.30
2018-10-21T22:02:41.528Z,21.23
2018-10-21T22:05:10.904Z,16.63
2018-10-21T22:07:41.009Z,15.57
2018-10-21T22:10:12.646Z,19.02
2018-10-21T22:12:42.204Z,16.33
2018-10-21T22:15:11.437Z,20.33
2018-10-21T22:17:41.451Z,16.70
2018-10-21T22:20:11.560Z,23.40
2018-10-21T22:22:40.806Z,22.43
2018-10-21T22:25:10.461Z,22.13
2018-10-21T22:27:39.761Z,26.80
2018-10-21T22:30:10.453Z,25.37
2018-10-21T22:32:39.753Z,20.97
2018-10-21T22:35:09.820Z,28.83
2018-10-21T22:37:39.204Z,21.50
2018-10-21T22:40:08.491Z,21.37
2018-10-21T22:42:37.943Z,23.00
2018-10-21T22:45:08.806Z,23.60
2018-10-21T22:47:38.311Z,15.10
2018-10-21T22:50:08.963Z,22.70
2018-10-21T22:52:38.153Z,19.87
2018-10-21T22:55:07.926Z,23.27
2018-10-21T22:57:37.025Z,18.17
2018-10-21T23:00:07.902Z,18.53
2018-10-21T23:02:37.248Z,17.23
2018-10-21T23:05:07.492Z,21.97
2018-10-21T23:07:36.919Z,20.70
2018-10-21T23:10:06.232Z,20.63
2018-10-21T23:12:35.297Z,18.20
2018-10-21T23:15:04.604Z,15.40
2018-10-21T23:17:33.970Z,17.27
2018-10-21T23:20:03.281Z,17.03
2018-10-21T23:22:32.662Z,21.27
2018-10-21T23:25:01.718Z,19.20
2018-10-21T23:27:30.851Z,19.03
2018-10-21T23:30:00.125Z,19.17
2018-10-21T23:32:29.358Z,19.17
2018-10-21T23:34:58.463Z,20.97
2018-10-21T23:37:28.141Z,18.90
2018-10-21T23:39:57.660Z,21.77
2018-10-21T23:42:27.081Z,24.20
2018-10-21T23:44:56.224Z,24.13
2018-10-21T23:47:25.581Z,29.40
2018-10-21T23:49:55.080Z,21.57
2018-10-21T23:52:24.253Z,22.10
2018-10-21T23:54:53.577Z,24.10
2018-10-21T23:57:22.869Z,18.07
2018-10-21T23:59:52.147Z,18.90
